createdAt,value
2019-04-22T00:01:28.622Z,42.43
2019-04-22T00:04:06.118Z,42.41
2019-04-22T00:06:59.811Z,42.26
2019-04-22T00:09:31.080Z,42.62
2019-04-22T00:12:07.680Z,42.45
2019-04-22T00:14:36.604Z,42.39
2019-04-22T00:17:16.664Z,42.36
2019-04-22T00:19:52.385Z,41.83
2019-04-22T00:22:23.871Z,41.64
2019-04-22T00:25:01.122Z,41.64
2019-04-22T00:27:39.174Z,41.22
2019-04-22T00:30:07.930Z,40.93
2019-04-22T00:32:58.917Z,40.65
2019-04-22T00:35:33.295Z,40.39
2019-04-22T00:38:11.147Z,40.63
2019-04-22T00:40:42.435Z,40.70
2019-04-22T00:43:13.588Z,40.73
2019-04-22T00:48:44.562Z,40.88
2019-04-22T00:51:22.491Z,40.97
2019-04-22T00:53:36.074Z,40.95
2019-04-22T00:56:16.754Z,40.95
2019-04-22T00:58:45.121Z,40.94
2019-04-22T01:01:20.254Z,41.05
2019-04-22T01:04:04.261Z,41.08
2019-04-22T01:06:26.437Z,41.16
2019-04-22T01:09:04.345Z,42.03
2019-04-22T01:11:33.643Z,42.30
2019-04-22T01:14:06.541Z,42.28
2019-04-22T01:16:43.096Z,42.74
2019-04-22T01:19:23.525Z,42.99
2019-04-22T01:21:52.469Z,42.90
2019-04-22T01:24:24.767Z,42.94
2019-04-22T01:26:56.452Z,42.98
2019-04-22T01:29:22.795Z,42.88
2019-04-22T01:31:45.634Z,42.83
2019-04-22T01:34:33.617Z,43.53
2019-04-22T01:37:11.292Z,43.55
2019-04-22T01:39:49.785Z,43.53
2019-04-22T01:42:24.504Z,43.68
2019-04-22T01:44:59.035Z,44.58
2019-04-22T01:47:36.322Z,44.91
2019-04-22T01:50:06.228Z,45.31
2019-04-22T01:52:44.725Z,45.29
2019-04-22T01:55:17.807Z,45.40
2019-04-22T01:57:50.030Z,45.28
2019-04-22T02:00:12.567Z,45.18
2019-04-22T02:03:01.117Z,45.05
2019-04-22T02:05:28.669Z,45.14
2019-04-22T02:08:04.437Z,45.29
2019-04-22T02:10:44.344Z,46.45
2019-04-22T02:13:15.434Z,45.89
2019-04-22T02:15:47.847Z,45.95
2019-04-22T02:18:27.712Z,45.71
2019-04-22T02:20:48.857Z,45.56
2019-04-22T02:26:09.439Z,45.14
2019-04-22T02:34:09.648Z,44.43
2019-04-22T02:36:30.097Z,44.33
2019-04-22T02:41:35.041Z,43.96
2019-04-22T02:49:18.865Z,44.02
2019-04-22T02:51:44.416Z,44.27
2019-04-22T02:56:53.019Z,44.36
2019-04-22T02:59:36.968Z,44.50
2019-04-22T03:02:07.608Z,44.86
2019-04-22T03:04:39.398Z,45.50
2019-04-22T03:07:03.714Z,45.71
2019-04-22T03:09:51.773Z,46.00
2019-04-22T03:14:51.742Z,47.08
2019-04-22T03:17:30.864Z,47.77
2019-04-22T03:25:42.281Z,49.74
2019-04-22T03:45:30.184Z,59.91
2019-04-22T03:48:33.129Z,61.20
2019-04-22T03:50:39.426Z,63.80
2019-04-22T03:53:21.209Z,66.73
2019-04-22T03:55:59.698Z,68.98
2019-04-22T03:58:28.274Z,69.86
2019-04-22T04:01:11.053Z,71.12
2019-04-22T04:03:39.448Z,71.33
2019-04-22T04:06:06.867Z,71.85
2019-04-22T04:08:39.142Z,71.22
2019-04-22T04:11:24.619Z,71.02
2019-04-22T04:14:05.469Z,70.88
2019-04-22T04:16:35.009Z,71.47
2019-04-22T04:19:07.820Z,71.47
2019-04-22T04:24:25.854Z,71.51
2019-04-22T04:27:06.746Z,71.90
2019-04-22T04:32:09.359Z,72.36
2019-04-22T04:34:43.825Z,72.09
2019-04-22T04:37:15.090Z,72.29
2019-04-22T04:39:36.423Z,71.27
2019-04-22T04:42:14.410Z,68.56
2019-04-22T04:44:58.650Z,68.83
2019-04-22T04:47:25.836Z,68.15
2019-04-22T04:49:54.428Z,64.97
2019-04-22T04:52:39.302Z,64.66
2019-04-22T04:57:33.731Z,65.96
2019-04-22T05:00:31.942Z,66.19
2019-04-22T05:05:14.517Z,62.92
2019-04-22T05:15:27.614Z,57.85
2019-04-22T05:18:06.101Z,54.48
2019-04-22T05:22:59.430Z,51.62
2019-04-22T05:25:31.975Z,51.26
2019-04-22T05:28:11.880Z,49.32
2019-04-22T05:30:42.440Z,51.93
2019-04-22T05:33:22.853Z,53.65
2019-04-22T05:35:56.332Z,56.61
2019-04-22T05:38:33.210Z,57.34
2019-04-22T05:40:56.495Z,57.00
2019-04-22T05:43:38.562Z,55.93
2019-04-22T05:46:05.712Z,56.10
2019-04-22T05:51:24.273Z,56.92
2019-04-22T05:53:48.157Z,56.15
2019-04-22T05:56:28.702Z,56.76
2019-04-22T05:58:58.313Z,56.34
2019-04-22T06:01:38.922Z,56.90
2019-04-22T06:04:05.375Z,57.41
2019-04-22T06:06:37.095Z,58.28
2019-04-22T06:09:10.714Z,60.18
2019-04-22T06:11:42.825Z,61.65
2019-04-22T06:14:15.280Z,62.71
2019-04-22T06:16:57.167Z,62.32
2019-04-22T06:19:33.223Z,61.28
2019-04-22T06:22:04.286Z,60.22
2019-04-22T06:24:43.690Z,59.82
2019-04-22T06:27:21.797Z,59.98
2019-04-22T06:29:41.759Z,58.99
2019-04-22T06:32:26.291Z,57.41
2019-04-22T06:35:00.428Z,56.17
2019-04-22T06:37:59.770Z,55.07
2019-04-22T06:39:59.167Z,53.66
2019-04-22T06:42:36.546Z,51.04
2019-04-22T06:45:12.107Z,47.41
2019-04-22T06:50:28.407Z,45.36
2019-04-22T06:52:57.186Z,45.25
2019-04-22T06:55:33.244Z,45.58
2019-04-22T06:58:01.539Z,45.79
2019-04-22T07:00:36.937Z,46.00
2019-04-22T07:03:28.591Z,47.06
2019-04-22T07:05:57.006Z,47.46
2019-04-22T07:08:39.335Z,47.89
2019-04-22T07:13:29.924Z,49.45
2019-04-22T07:16:00.341Z,48.68
2019-04-22T07:23:46.045Z,49.44
2019-04-22T07:28:50.659Z,51.17
2019-04-22T07:31:24.876Z,52.05
2019-04-22T07:33:58.214Z,51.22
2019-04-22T07:36:45.694Z,50.21
2019-04-22T07:39:04.003Z,50.00
2019-04-22T07:41:42.991Z,50.01
2019-04-22T07:44:17.672Z,49.00
2019-04-22T07:46:56.525Z,48.32
2019-04-22T07:49:26.638Z,46.83
2019-04-22T07:51:57.683Z,44.75
2019-04-22T07:54:38.217Z,42.23
2019-04-22T07:57:17.939Z,41.02
2019-04-22T07:59:40.859Z,41.51
2019-04-22T08:02:21.691Z,42.40
2019-04-22T08:05:03.804Z,43.47
2019-04-22T08:07:24.109Z,43.74
2019-04-22T08:10:09.175Z,42.54
2019-04-22T08:12:36.091Z,41.37
2019-04-22T08:15:06.068Z,40.10
2019-04-22T08:20:19.026Z,37.17
2019-04-22T08:22:52.166Z,36.98
2019-04-22T08:25:20.386Z,36.64
2019-04-22T08:27:57.275Z,33.95
2019-04-22T08:30:34.885Z,25.89
2019-04-22T08:33:13.781Z,20.88
2019-04-22T08:35:53.861Z,21.79
2019-04-22T08:38:11.429Z,22.34
2019-04-22T08:41:16.425Z,25.06
2019-04-22T08:46:25.574Z,27.99
2019-04-22T08:51:25.450Z,26.25
2019-04-22T08:54:13.683Z,20.09
2019-04-22T08:56:37.609Z,19.39
2019-04-22T08:59:07.941Z,16.23
2019-04-22T09:01:37.687Z,12.12
2019-04-22T09:04:27.881Z,10.52
2019-04-22T09:07:07.505Z,8.98
2019-04-22T09:09:21.286Z,10.40
2019-04-22T09:12:00.208Z,9.79
2019-04-22T09:14:34.252Z,8.54
2019-04-22T09:17:04.095Z,11.44
2019-04-22T09:19:38.571Z,12.37
2019-04-22T09:22:15.978Z,11.18
2019-04-22T09:24:45.982Z,11.00
2019-04-22T09:27:24.681Z,16.98
2019-04-22T09:29:55.529Z,22.23
2019-04-22T09:32:31.706Z,17.88
2019-04-22T09:34:58.924Z,15.95
2019-04-22T09:42:43.730Z,18.86
2019-04-22T09:45:15.145Z,22.54
2019-04-22T09:47:56.870Z,25.40
2019-04-22T09:55:29.811Z,31.19
2019-04-22T09:58:04.511Z,29.82
2019-04-22T10:00:45.844Z,30.78
2019-04-22T10:03:17.855Z,30.04
2019-04-22T10:05:52.479Z,32.77
2019-04-22T10:08:38.389Z,31.50
2019-04-22T10:10:58.007Z,26.25
2019-04-22T10:13:34.539Z,16.69
2019-04-22T10:16:02.968Z,13.38
2019-04-22T10:18:43.715Z,12.75
2019-04-22T10:21:16.572Z,13.78
2019-04-22T10:23:45.836Z,12.17
2019-04-22T10:26:22.306Z,10.28
2019-04-22T10:31:32.873Z,7.60
2019-04-22T10:33:53.723Z,9.40
2019-04-22T10:36:11.293Z,9.37
2019-04-22T10:38:44.544Z,9.32
2019-04-22T10:41:16.748Z,8.41
2019-04-22T10:43:48.952Z,7.96
2019-04-22T10:46:22.475Z,12.16
2019-04-22T10:48:54.687Z,15.01
2019-04-22T10:51:26.886Z,12.66
2019-04-22T10:53:59.717Z,11.80
2019-04-22T10:56:34.845Z,11.33
2019-04-22T10:59:06.918Z,11.10
2019-04-22T11:01:42.384Z,10.12
2019-04-22T11:04:15.277Z,10.50
2019-04-22T11:06:53.068Z,10.54
2019-04-22T11:09:23.489Z,9.92
2019-04-22T11:12:02.082Z,10.80
2019-04-22T11:14:28.736Z,11.03
2019-04-22T11:17:03.398Z,9.62
2019-04-22T11:19:35.354Z,9.43
2019-04-22T11:22:15.204Z,13.31
2019-04-22T11:24:41.203Z,13.73
2019-04-22T11:27:14.755Z,14.15
2019-04-22T11:29:47.720Z,17.36
2019-04-22T11:32:20.421Z,21.12
2019-04-22T11:34:53.599Z,19.89
2019-04-22T11:37:25.984Z,23.61
2019-04-22T11:40:06.890Z,27.01
2019-04-22T11:42:32.280Z,29.16
2019-04-22T11:45:05.580Z,30.55
2019-04-22T11:47:39.251Z,31.24
2019-04-22T11:50:12.933Z,33.28
2019-04-22T11:52:45.043Z,34.04
2019-04-22T11:55:17.453Z,34.88
2019-04-22T11:57:49.972Z,34.92
2019-04-22T12:00:30.556Z,34.28
2019-04-22T12:03:03.239Z,33.89
2019-04-22T12:05:35.556Z,34.49
2019-04-22T12:08:09.335Z,34.35
2019-04-22T12:10:49.484Z,33.93
2019-04-22T12:13:15.878Z,33.04
2019-04-22T12:15:49.106Z,32.61
2019-04-22T12:18:22.879Z,32.14
2019-04-22T12:20:55.356Z,31.83
2019-04-22T12:23:27.441Z,31.74
2019-04-22T12:26:04.229Z,31.97
2019-04-22T12:28:33.321Z,32.02
2019-04-22T12:31:05.761Z,31.76
2019-04-22T12:33:39.185Z,30.94
2019-04-22T12:36:12.670Z,31.36
2019-04-22T12:38:45.370Z,31.63
2019-04-22T12:41:18.029Z,32.20
2019-04-22T12:43:51.606Z,31.72
2019-04-22T12:46:24.071Z,30.74
2019-04-22T12:48:58.258Z,30.98
2019-04-22T12:51:31.364Z,31.25
2019-04-22T12:54:03.629Z,30.82
2019-04-22T12:56:35.766Z,30.95
2019-04-22T12:59:07.844Z,30.98
2019-04-22T13:01:39.839Z,31.50
2019-04-22T13:04:15.536Z,30.71
2019-04-22T13:06:46.101Z,30.49
2019-04-22T13:09:19.539Z,30.47
2019-04-22T13:11:52.957Z,30.01
2019-04-22T13:14:25.159Z,30.03
2019-04-22T13:16:57.776Z,30.27
2019-04-22T13:19:30.268Z,31.16
2019-04-22T13:22:02.928Z,31.56
2019-04-22T13:24:36.146Z,31.88
2019-04-22T13:27:10.862Z,32.20
2019-04-22T13:29:43.453Z,32.46
2019-04-22T13:32:16.554Z,32.44
2019-04-22T13:34:53.320Z,33.60
2019-04-22T13:37:23.255Z,34.10
2019-04-22T13:39:56.844Z,33.63
2019-04-22T13:42:30.123Z,33.33
2019-04-22T13:45:04.048Z,33.68
2019-04-22T13:47:54.692Z,32.95
2019-04-22T13:50:54.484Z,32.24
2019-04-22T13:53:30.379Z,31.25
2019-04-22T13:55:48.174Z,30.24
2019-04-22T13:58:09.727Z,30.98
2019-04-22T14:00:32.406Z,32.88
2019-04-22T14:03:26.755Z,39.18
2019-04-22T14:05:58.883Z,44.75
2019-04-22T14:08:31.333Z,50.74
2019-04-22T14:11:13.195Z,55.84
2019-04-22T14:13:37.749Z,57.21
2019-04-22T14:16:11.015Z,56.65
2019-04-22T14:18:45.954Z,56.79
2019-04-22T14:21:17.110Z,52.38
2019-04-22T14:23:49.124Z,50.96
2019-04-22T14:26:23.059Z,50.98
2019-04-22T14:28:55.732Z,50.86
2019-04-22T14:31:28.808Z,51.27
2019-04-22T14:34:05.142Z,51.35
2019-04-22T14:36:35.310Z,51.24
2019-04-22T14:39:10.322Z,51.89
2019-04-22T14:41:57.570Z,51.50
2019-04-22T14:45:16.926Z,50.59
2019-04-22T14:47:17.618Z,50.10
2019-04-22T14:49:47.319Z,49.24
2019-04-22T14:52:21.487Z,48.55
2019-04-22T14:54:45.938Z,47.41
2019-04-22T14:57:07.446Z,46.52
2019-04-22T14:59:39.894Z,46.39
2019-04-22T15:02:13.936Z,45.53
2019-04-22T15:04:46.143Z,45.90
2019-04-22T15:07:19.185Z,45.47
2019-04-22T15:09:52.265Z,43.76
2019-04-22T15:12:31.263Z,44.75
2019-04-22T15:14:59.737Z,45.01
2019-04-22T15:17:38.852Z,44.88
2019-04-22T15:20:19.631Z,45.00
2019-04-22T15:22:53.084Z,45.02
2019-04-22T15:25:28.300Z,44.88
2019-04-22T15:28:01.521Z,43.43
2019-04-22T15:30:35.139Z,43.27
2019-04-22T15:33:07.485Z,43.46
2019-04-22T15:35:41.042Z,43.72
2019-04-22T15:38:13.290Z,43.79
2019-04-22T15:40:45.269Z,43.59
2019-04-22T15:43:17.387Z,43.63
2019-04-22T15:45:50.780Z,41.76
2019-04-22T15:48:23.255Z,41.02
2019-04-22T15:50:55.341Z,39.73
2019-04-22T15:53:27.659Z,39.66
2019-04-22T15:56:00.802Z,40.61
2019-04-22T15:58:33.553Z,41.05
2019-04-22T16:01:12.977Z,41.73
2019-04-22T16:03:40.661Z,42.59
2019-04-22T16:06:12.794Z,42.87
2019-04-22T16:08:45.793Z,43.06
2019-04-22T16:11:18.192Z,43.56
2019-04-22T16:13:52.488Z,44.12
2019-04-22T16:16:24.846Z,44.06
2019-04-22T16:18:58.453Z,44.33
2019-04-22T16:21:40.543Z,44.25
2019-04-22T16:24:28.143Z,43.82
2019-04-22T16:27:06.554Z,43.55
2019-04-22T16:29:39.271Z,43.56
2019-04-22T16:32:11.550Z,43.70
2019-04-22T16:34:43.540Z,43.75
2019-04-22T16:37:16.758Z,43.33
2019-04-22T16:39:50.477Z,43.05
2019-04-22T16:42:30.220Z,42.51
2019-04-22T16:44:57.587Z,42.66
2019-04-22T16:47:31.363Z,42.60
2019-04-22T16:50:03.787Z,42.69
2019-04-22T16:52:36.291Z,42.96
2019-04-22T16:55:10.599Z,43.20
2019-04-22T16:57:44.113Z,43.34
2019-04-22T17:00:18.570Z,43.28
2019-04-22T17:03:06.652Z,43.30
2019-04-22T17:06:05.367Z,43.59
2019-04-22T17:08:38.915Z,43.90
2019-04-22T17:11:11.764Z,44.22
2019-04-22T17:13:44.619Z,44.13
2019-04-22T17:16:18.036Z,44.27
2019-04-22T17:18:50.394Z,44.49
2019-04-22T17:21:23.612Z,44.64
2019-04-22T17:23:56.987Z,44.76
2019-04-22T17:26:30.360Z,44.87
2019-04-22T17:29:06.216Z,45.04
2019-04-22T17:31:40.194Z,45.17
2019-04-22T17:34:13.410Z,45.14
2019-04-22T17:36:46.238Z,45.40
2019-04-22T17:39:32.962Z,45.68
2019-04-22T17:42:11.192Z,45.99
2019-04-22T17:44:49.810Z,46.42
2019-04-22T17:47:31.765Z,46.84
2019-04-22T17:50:11.740Z,47.12
2019-04-22T17:52:42.659Z,47.46
2019-04-22T17:55:21.379Z,47.66
2019-04-22T17:57:49.502Z,47.90
2019-04-22T18:00:25.449Z,48.11
2019-04-22T18:02:54.748Z,48.44
2019-04-22T18:05:22.180Z,48.71
2019-04-22T18:08:11.710Z,48.97
2019-04-22T18:10:40.627Z,49.41
2019-04-22T18:13:30.399Z,49.61
2019-04-22T18:15:54.768Z,49.83
2019-04-22T18:18:33.213Z,49.93
2019-04-22T18:20:56.343Z,50.10
2019-04-22T18:23:20.835Z,50.43
2019-04-22T18:26:05.332Z,50.38
2019-04-22T18:28:43.530Z,50.68
2019-04-22T18:31:12.125Z,50.86
2019-04-22T18:33:47.923Z,50.95
2019-04-22T18:36:19.282Z,51.44
2019-04-22T18:39:06.267Z,51.78
2019-04-22T18:41:30.355Z,52.06
2019-04-22T18:44:04.382Z,52.48
2019-04-22T18:46:36.879Z,52.87
2019-04-22T18:49:12.400Z,53.17
2019-04-22T18:51:51.393Z,53.30
2019-04-22T18:54:36.015Z,53.53
2019-04-22T18:57:13.779Z,53.64
2019-04-22T18:59:33.657Z,53.87
2019-04-22T19:02:07.805Z,54.02
2019-04-22T19:04:47.262Z,53.98
2019-04-22T19:07:36.873Z,53.84
2019-04-22T19:10:10.616Z,53.51
2019-04-22T19:12:48.806Z,53.09
2019-04-22T19:15:19.063Z,52.54
2019-04-22T19:17:54.386Z,52.03
2019-04-22T19:20:29.622Z,51.61
2019-04-22T19:22:57.514Z,50.91
2019-04-22T19:25:24.058Z,50.66
2019-04-22T19:28:14.180Z,48.80
2019-04-22T19:30:41.515Z,48.72
2019-04-22T19:33:11.214Z,48.23
2019-04-22T19:35:40.434Z,47.46
2019-04-22T19:38:12.186Z,46.98
2019-04-22T19:41:03.044Z,46.04
2019-04-22T19:43:28.639Z,45.85
2019-04-22T19:45:58.914Z,44.44
2019-04-22T19:48:39.697Z,43.50
2019-04-22T19:51:34.016Z,43.01
2019-04-22T19:53:46.696Z,42.89
2019-04-22T19:56:11.707Z,42.67
2019-04-22T19:58:47.697Z,41.50
2019-04-22T20:01:49.508Z,41.54
2019-04-22T20:04:46.301Z,41.45
2019-04-22T20:07:12.733Z,40.66
2019-04-22T20:09:55.139Z,40.76
2019-04-22T20:12:21.382Z,40.31
2019-04-22T20:14:54.477Z,40.21
2019-04-22T20:17:40.944Z,40.06
2019-04-22T20:20:09.664Z,39.76
2019-04-22T20:22:37.245Z,39.71
2019-04-22T20:25:05.425Z,39.59
2019-04-22T20:27:54.655Z,39.77
2019-04-22T20:30:28.271Z,40.00
2019-04-22T20:32:56.666Z,39.91
2019-04-22T20:35:32.757Z,39.90
2019-04-22T20:38:10.736Z,40.00
2019-04-22T20:40:41.424Z,40.20
2019-04-22T20:43:22.061Z,40.28
2019-04-22T20:45:47.950Z,40.04
2019-04-22T20:48:07.980Z,40.09
2019-04-22T20:50:54.142Z,40.30
2019-04-22T20:53:30.180Z,40.40
2019-04-22T20:56:08.926Z,40.41
2019-04-22T20:58:42.823Z,40.53
2019-04-22T21:00:59.863Z,40.31
2019-04-22T21:03:32.980Z,40.48
2019-04-22T21:06:13.073Z,40.49
2019-04-22T21:08:57.984Z,40.84
2019-04-22T21:11:27.805Z,41.08
2019-04-22T21:13:55.993Z,41.10
2019-04-22T21:16:32.822Z,41.21
2019-04-22T21:19:11.735Z,41.22
2019-04-22T21:21:47.025Z,41.19
2019-04-22T21:24:09.274Z,41.38
2019-04-22T21:26:43.777Z,41.55
2019-04-22T21:29:17.276Z,41.57
2019-04-22T21:31:57.850Z,41.62
2019-04-22T21:34:32.293Z,41.78
2019-04-22T21:37:15.984Z,41.72
2019-04-22T21:39:40.229Z,41.55
2019-04-22T21:42:11.820Z,41.87
2019-04-22T21:44:45.570Z,41.93
2019-04-22T21:47:28.698Z,42.03
2019-04-22T21:50:19.682Z,42.12
2019-04-22T21:52:34.575Z,42.30
2019-04-22T21:55:14.488Z,42.49
2019-04-22T21:58:02.546Z,42.73
2019-04-22T22:00:43.223Z,42.80
2019-04-22T22:03:15.403Z,42.96
2019-04-22T22:05:35.497Z,43.26
2019-04-22T22:08:23.436Z,43.48
2019-04-22T22:10:54.758Z,43.63
2019-04-22T22:13:29.355Z,43.95
2019-04-22T22:16:00.137Z,44.11
2019-04-22T22:18:30.325Z,44.33
2019-04-22T22:21:28.365Z,44.55
2019-04-22T22:23:45.646Z,44.72
2019-04-22T22:26:09.800Z,44.93
2019-04-22T22:31:33.194Z,45.26
2019-04-22T22:34:04.119Z,45.37
2019-04-22T22:36:23.786Z,45.49
2019-04-22T22:39:00.701Z,45.39
2019-04-22T22:41:18.412Z,45.65
2019-04-22T22:43:53.107Z,45.71
2019-04-22T22:46:34.169Z,45.68
2019-04-22T22:49:23.337Z,45.79
2019-04-22T22:52:11.871Z,45.91
2019-04-22T22:54:33.074Z,45.84
2019-04-22T22:57:01.963Z,45.92
2019-04-22T22:59:33.186Z,46.11
2019-04-22T23:02:08.090Z,46.30
2019-04-22T23:04:48.753Z,46.40
2019-04-22T23:07:25.613Z,46.46
2019-04-22T23:09:49.011Z,46.71
2019-04-22T23:14:57.613Z,47.14
2019-04-22T23:17:16.666Z,47.17
2019-04-22T23:19:50.357Z,47.39
2019-04-22T23:22:28.385Z,47.50
2019-04-22T23:25:16.035Z,47.60
2019-04-22T23:27:46.537Z,47.87
2019-04-22T23:30:33.872Z,47.98
2019-04-22T23:33:09.895Z,47.93
2019-04-22T23:36:03.737Z,48.12
2019-04-22T23:38:53.696Z,48.31
2019-04-22T23:41:47.632Z,48.61
2019-04-22T23:44:13.858Z,48.69
2019-04-22T23:46:52.249Z,48.92
2019-04-22T23:49:25.329Z,49.04
2019-04-22T23:52:13.050Z,49.22
2019-04-22T23:54:43.588Z,49.41
2019-04-22T23:57:15.447Z,49.56
